Mitchell, SD (57301)

1:56 PM CST on December 06, 2016 (GMT -0600)
Capital Addition | | Change Station
Active Advisory: Wind Advisory

Elev 1316 ft 43.72 °N, 98.03 °W | Updated 1 minute ago

Mostly Cloudy
Mostly Cloudy
20.7 °F
Feels Like 13 °F
N
5.3
Wind Variable Wind from West

Today
High -- | Low -- °F
--% Chance of Precip.
Yesterday
High -- | Low -- °F
Precip. -- in
Pressure 29.95 in
Visibility 10.0 miles
Clouds Mostly Cloudy 2800 ft
Windchill 13 °F
Dew Point 11 °F
Humidity 65%
Rainfall 0.00 in
Snow Depth Not available.
7:51 AM 4:55 PM
Waxing Crescent, 44% visible
SPECI KMHE 061918Z AUTO 28020G33KT 10SM BKN028 M06/M13 A2995 RMK AO2 PK WND 29033/1910 T10611128
Pressure 29.95 in
Visibility 10.0 miles
Clouds Mostly Cloudy 2800 ft
Windchill 13 °F
Dew Point 11 °F
Humidity 65%
Rainfall 0.00 in
Snow Depth Not available.
7:51 AM 4:55 PM
Waxing Crescent, 44% visible
SPECI KMHE 061918Z AUTO 28020G33KT 10SM BKN028 M06/M13 A2995 RMK AO2 PK WND 29033/1910 T10611128

10-Day Weather Forecast

Almanac

Astronomy

Dec. 06, 2016 Rise Set
Actual Time
Civil Twilight
Nautical Twilight
Astronomical Twilight
Moon
Length of Visible Light
Length of Day
Tomorrow will be .
, % of the Moon is Illuminated

Today's Extremes

State Highs State Lows

Community

WunderPhotos

Upload Photos

1,956,020 photos uploaded!

WunderBlog® & News

Nearby

Air Quality

  Air Quality AQ Index Pollutant
Not available.

Snow Depth

Station Depth Elevation

Earthquake Activity

City Distance Mag. Time & Date
Minimum magnitude displayed is 2.5.

Coastal Water Temperatures

Place Temperature

Stations

Nearby Weather Stations

Station Location Temp. Windchill Dew Point Humidity Wind Precip. Elev Updated Type
                   

Watches & Warnings

Wind Advisory
Issued: 1:22 PM CST Dec. 6, 2016 – National Weather Service

... Wind Advisory remains in effect until 9 PM CST this evening...

* timing... strong west to northwest winds will continue through
this afternoon... then begin to decrease early this evening.

* Weather conditions... northwest winds will average 25 to 40
mph... with gusts as high as 50 mph.

Precautionary/preparedness actions...

A Wind Advisory is issued when sustained winds are forecast to be
31 to 39 mph or gusts will range between 46 and 57 mph. Winds of
these magnitudes may cause minor property damage without extra
precautions. Motorists in high profile vehicles should use
caution until the winds subside.